Time;durP1;ratioP1;P1;durP2;ratioP2;P2;SDS_P1;SDS_P2;PMS_P1;PMS_P2;Temp;Humidity;BMP_temperature;BMP_pressure;BME280_temperature;BME280_humidity;BME280_pressure;Samples;Min_cycle;Max_cycle;Signal;HPM_P1;HPM_P2
2020/12/19 00:00:13;;;;;;;12.10;6.30;;;9.40;90.10;;;9.37;76.79;100618.72;4975360;28;20136;-78
2020/12/19 00:02:41;;;;;;;10.35;5.75;;;9.50;90.30;;;9.36;77.12;100612.41;4975357;28;20066;-78
2020/12/19 00:05:07;;;;;;;15.23;6.30;;;9.50;90.30;;;9.36;77.18;100611.59;4981935;28;20134;-78
2020/12/19 00:07:34;;;;;;;10.50;6.30;;;9.50;90.30;;;9.34;76.84;100609.03;4994411;28;20046;-78
2020/12/19 00:10:03;;;;;;;10.45;5.57;;;9.50;90.40;;;9.33;77.29;100604.63;4994732;28;20110;-78
2020/12/19 00:12:31;;;;;;;10.95;6.20;;;9.50;90.40;;;9.31;77.17;100603.09;4994815;28;20499;-78
2020/12/19 00:14:58;;;;;;;11.27;6.22;;;9.50;90.10;;;9.34;77.06;100603.59;4992887;28;20046;-78
2020/12/19 00:17:24;;;;;;;15.73;6.07;;;9.50;90.10;;;9.33;77.27;100591.06;4976531;28;20052;-78
2020/12/19 00:19:51;;;;;;;10.95;5.97;;;9.50;90.20;;;9.29;77.21;100592.44;4994366;28;20515;-78
2020/12/19 00:22:21;;;;;;;10.32;5.78;;;9.50;90.30;;;9.33;77.39;100590.22;4994327;28;20502;-78
2020/12/19 00:24:48;;;;;;;9.82;6.05;;;9.50;90.30;;;9.34;77.04;100589.19;4994744;28;20581;-78
2020/12/19 00:27:16;;;;;;;11.55;6.00;;;9.50;90.30;;;9.33;77.15;100591.06;4994290;28;20038;-78
2020/12/19 00:29:43;;;;;;;9.93;6.60;;;9.50;90.20;;;9.35;77.47;100588.19;4992924;28;20104;-78
2020/12/19 00:32:11;;;;;;;11.25;6.20;;;9.60;90.20;;;9.35;77.53;100583.59;4994505;28;20080;-78
2020/12/19 00:34:37;;;;;;;12.40;6.18;;;9.60;90.20;;;9.34;77.26;100576.44;4994745;28;20054;-78
2020/12/19 00:37:04;;;;;;;10.18;6.15;;;9.50;90.20;;;9.32;77.22;100573.06;4993544;28;20046;-78
2020/12/19 00:39:31;;;;;;;9.15;5.50;;;9.50;90.20;;;9.35;77.43;100564.56;4994363;28;20046;-78
2020/12/19 00:41:58;;;;;;;11.43;6.45;;;9.50;90.20;;;9.36;77.12;100563.53;4976096;28;20046;-78
2020/12/19 00:44:25;;;;;;;11.10;6.18;;;9.60;90.20;;;9.36;77.41;100574.41;4976086;28;20141;-78
2020/12/19 00:46:53;;;;;;;10.38;5.80;;;9.50;90.30;;;9.36;77.09;100568.13;4993582;28;20047;-78
2020/12/19 00:49:20;;;;;;;8.77;5.50;;;9.60;90.20;;;9.37;77.04;100569.84;4993817;28;20081;-78
2020/12/19 00:51:46;;;;;;;13.10;6.47;;;9.50;90.20;;;9.37;77.04;100565.25;4994249;28;20066;-78
2020/12/19 00:54:13;;;;;;;11.07;5.78;;;9.50;90.20;;;9.36;77.18;100551.81;4994188;28;20047;-78
2020/12/19 00:56:40;;;;;;;8.93;5.82;;;9.50;90.20;;;9.36;77.12;100555.38;4993875;28;20574;-78
2020/12/19 00:59:07;;;;;;;12.52;6.13;;;9.50;90.20;;;9.31;77.15;100555.09;4993916;28;20132;-78
2020/12/19 01:01:34;;;;;;;8.98;5.50;;;9.40;90.20;;;9.32;76.80;100545.91;4993818;28;20141;-78
2020/12/19 01:04:02;;;;;;;10.85;6.10;;;9.40;90.10;;;9.31;77.16;100551.50;4974922;28;20074;-78
2020/12/19 01:06:29;;;;;;;10.43;5.95;;;9.40;90.10;;;9.28;77.17;100543.72;4984799;28;20122;-78
2020/12/19 01:08:58;;;;;;;9.95;5.80;;;9.40;90.00;;;9.32;76.91;100543.19;4993473;28;20069;-78
2020/12/19 01:11:27;;;;;;;11.48;5.30;;;9.50;90.10;;;9.29;76.92;100546.25;4975632;28;20145;-78
2020/12/19 01:13:54;;;;;;;9.30;6.40;;;9.50;90.10;;;9.32;77.09;100529.59;4993406;28;20133;-78
2020/12/19 01:16:24;;;;;;;11.95;5.88;;;9.50;90.00;;;9.31;77.26;100540.63;4992802;28;20077;-78
2020/12/19 01:18:54;;;;;;;10.68;6.80;;;9.40;90.10;;;9.34;77.14;100543.00;4976187;28;20062;-78
2020/12/19 01:21:23;;;;;;;11.57;6.00;;;9.40;90.10;;;9.31;77.06;100536.06;4993073;28;20193;-78
2020/12/19 01:23:51;;;;;;;9.88;5.68;;;9.40;90.10;;;9.27;77.11;100529.31;4993247;28;20053;-78
2020/12/19 01:26:19;;;;;;;11.63;5.32;;;9.40;90.20;;;9.28;77.06;100532.84;4992355;28;20074;-78
2020/12/19 01:28:46;;;;;;;9.20;5.40;;;9.40;90.30;;;9.27;76.99;100531.16;4993009;28;20502;-78
2020/12/19 01:31:17;;;;;;;10.20;5.60;;;9.40;90.30;;;9.24;76.93;100535.06;4992747;28;20050;-78
2020/12/19 01:33:44;;;;;;;8.82;5.43;;;9.30;90.30;;;9.26;76.99;100533.03;4992932;28;20141;-78
2020/12/19 01:36:14;;;;;;;10.70;6.18;;;9.40;90.20;;;9.24;77.34;100536.94;4992634;28;20078;-78
2020/12/19 01:38:42;;;;;;;9.82;6.00;;;9.50;90.30;;;9.28;77.13;100527.44;4992878;28;20074;-78
2020/12/19 01:41:09;;;;;;;10.82;6.55;;;9.40;90.10;;;9.31;77.39;100532.47;4992533;28;20482;-78
2020/12/19 01:43:49;;;;;;;10.57;6.15;;;9.50;90.30;;;9.28;77.12;100528.25;4992709;28;20077;-78
2020/12/19 01:46:33;;;;;;;10.82;6.53;;;9.50;90.20;;;9.30;77.33;100522.66;4992463;28;20069;-78
2020/12/19 01:49:03;;;;;;;10.35;5.90;;;9.50;90.20;;;9.35;77.19;100520.28;4992765;28;20380;-78
2020/12/19 01:51:31;;;;;;;12.45;6.53;;;9.50;90.20;;;9.37;77.07;100510.06;4992891;28;20070;-78
2020/12/19 01:53:58;;;;;;;13.05;6.32;;;9.50;90.30;;;9.34;76.93;100511.25;4992462;28;20125;-78
2020/12/19 01:56:46;;;;;;;12.05;6.50;;;9.50;90.30;;;9.35;77.03;100518.41;4991950;28;20125;-78
2020/12/19 01:59:14;;;;;;;9.88;6.32;;;9.50;90.20;;;9.29;77.51;100512.81;4992975;28;20116;-78
2020/12/19 02:01:44;;;;;;;12.60;6.60;;;9.50;90.30;;;9.33;77.47;100511.47;4991977;28;20145;-78
2020/12/19 02:04:11;;;;;;;11.45;6.60;;;9.50;90.20;;;9.35;77.31;100512.13;4992394;28;20065;-78
2020/12/19 02:06:41;;;;;;;9.65;6.40;;;9.60;90.20;;;9.34;77.09;100505.81;4991913;28;20043;-78
2020/12/19 02:09:08;;;;;;;11.50;6.90;;;9.50;90.30;;;9.31;77.27;100503.47;4992135;28;20070;-78
2020/12/19 02:11:35;;;;;;;16.20;7.18;;;9.60;90.30;;;9.30;77.46;100507.22;4992458;28;20050;-78
2020/12/19 02:14:02;;;;;;;10.60;6.03;;;9.60;90.30;;;9.32;77.35;100497.00;4992389;28;20038;-78
2020/12/19 02:16:28;;;;;;;11.77;7.03;;;9.50;90.20;;;9.31;77.40;100506.19;4992007;28;20125;-78
2020/12/19 02:18:55;;;;;;;10.95;6.82;;;9.60;90.00;;;9.32;77.23;100502.44;4992149;28;20078;-78
2020/12/19 02:21:22;;;;;;;14.55;7.00;;;9.60;90.00;;;9.32;77.59;100496.16;4975201;28;20483;-78
2020/12/19 02:23:49;;;;;;;12.15;6.47;;;9.60;90.20;;;9.33;77.39;100498.72;4992088;28;20133;-78
2020/12/19 02:26:16;;;;;;;10.02;6.95;;;9.60;90.10;;;9.34;77.25;100497.69;4991527;28;20133;-78
2020/12/19 02:28:43;;;;;;;9.68;6.20;;;9.60;90.00;;;9.35;77.27;100493.94;4991655;28;20145;-78
2020/12/19 02:31:09;;;;;;;9.55;6.35;;;9.60;90.00;;;9.37;77.26;100482.91;4992424;28;20121;-78
2020/12/19 02:33:36;;;;;;;9.98;6.25;;;9.60;90.00;;;9.37;77.11;100478.31;4992545;28;20631;-78
2020/12/19 02:36:03;;;;;;;11.07;6.07;;;9.60;90.00;;;9.33;77.15;100487.84;4991357;28;20115;-78
2020/12/19 02:38:29;;;;;;;13.02;6.22;;;9.60;90.00;;;9.36;77.36;100481.22;4991828;28;20122;-78
2020/12/19 02:40:57;;;;;;;11.40;6.50;;;9.60;89.90;;;9.36;77.30;100473.91;4991920;28;20129;-78
2020/12/19 02:43:24;;;;;;;10.90;6.65;;;9.70;90.00;;;9.39;77.46;100476.28;4991949;28;20081;-78
2020/12/19 02:45:50;;;;;;;13.23;6.80;;;9.60;89.90;;;9.41;77.15;100476.09;4985463;28;20049;-78
2020/12/19 02:48:17;;;;;;;9.98;6.25;;;9.60;89.90;;;9.43;77.34;100473.22;4972433;28;20617;-78
2020/12/19 02:50:44;;;;;;;9.55;5.78;;;9.60;89.80;;;9.39;77.10;100468.13;4972602;28;20139;-78
2020/12/19 02:53:11;;;;;;;11.43;6.43;;;9.60;90.00;;;9.36;77.05;100471.19;4972396;28;20157;-78
2020/12/19 02:55:37;;;;;;;11.85;6.57;;;9.60;90.00;;;9.35;77.40;100464.06;4972059;28;20051;-78
2020/12/19 02:58:05;;;;;;;9.90;6.10;;;9.60;90.00;;;9.40;77.35;100463.53;4970838;28;20146;-78
2020/12/19 03:00:34;;;;;;;9.57;6.43;;;9.60;90.00;;;9.37;77.43;100464.75;4972442;28;20047;-78
2020/12/19 03:03:01;;;;;;;11.10;6.30;;;9.60;89.90;;;9.37;77.36;100459.31;4972124;28;20054;-78
2020/12/19 03:05:28;;;;;;;11.82;6.47;;;9.60;90.00;;;9.38;77.31;100460.16;4972109;28;20133;-78
2020/12/19 03:07:54;;;;;;;12.65;6.35;;;9.60;90.00;;;9.38;77.09;100458.28;4977215;28;20066;-78
2020/12/19 03:10:21;;;;;;;10.43;6.57;;;9.60;89.90;;;9.39;76.94;100459.13;4972577;28;20157;-78
2020/12/19 03:12:48;;;;;;;10.88;6.68;;;9.60;90.00;;;9.38;77.29;100458.28;4972348;28;20136;-78
2020/12/19 03:15:15;;;;;;;10.98;6.53;;;9.60;90.00;;;9.39;77.29;100461.84;4972019;28;20078;-78
2020/12/19 03:17:42;;;;;;;10.80;6.13;;;9.70;89.90;;;9.39;77.21;100453.72;4972440;28;20050;-78
2020/12/19 03:20:09;;;;;;;13.52;7.32;;;9.60;89.90;;;9.41;77.22;100456.25;4972639;28;20419;-78
2020/12/19 03:22:35;;;;;;;10.63;6.80;;;9.60;90.00;;;9.40;77.26;100458.09;4972663;28;20087;-78
2020/12/19 03:25:02;;;;;;;10.43;6.57;;;9.60;90.00;;;9.42;76.98;100457.94;4971981;28;20093;-78
2020/12/19 03:27:29;;;;;;;10.13;6.57;;;9.60;90.00;;;9.40;77.17;100449.94;4972522;28;20104;-78
2020/12/19 03:29:55;;;;;;;12.55;7.00;;;9.60;90.10;;;9.36;77.26;100454.88;4972517;28;20567;-78
2020/12/19 03:32:23;;;;;;;11.77;7.43;;;9.60;90.20;;;9.35;77.62;100452.38;4972325;28;20110;-78
2020/12/19 03:34:50;;;;;;;10.57;6.47;;;9.60;90.10;;;9.34;77.54;100442.53;4971128;28;20157;-78
2020/12/19 03:37:16;;;;;;;11.18;6.93;;;9.60;90.10;;;9.36;77.59;100427.72;4972056;28;20654;-78
2020/12/19 03:39:43;;;;;;;12.98;6.75;;;9.60;90.10;;;9.36;77.24;100435.03;4972360;28;20130;-78
2020/12/19 03:42:10;;;;;;;12.85;6.70;;;9.60;90.10;;;9.36;77.71;100438.59;4972416;28;20130;-78
2020/12/19 03:44:37;;;;;;;12.90;7.25;;;9.60;90.10;;;9.35;77.73;100434.19;4972690;28;20084;-78
2020/12/19 03:47:03;;;;;;;12.07;6.63;;;9.60;90.30;;;9.35;77.81;100428.78;4972125;28;20062;-78
2020/12/19 03:49:31;;;;;;;10.48;6.30;;;9.60;90.30;;;9.33;77.89;100427.25;4975358;28;20126;-78
2020/12/19 03:51:58;;;;;;;10.68;6.55;;;9.60;90.20;;;9.32;77.65;100426.41;4975499;28;20102;-78
2020/12/19 03:54:24;;;;;;;13.23;7.10;;;9.60;90.30;;;9.32;77.88;100425.56;4975555;28;20141;-78
2020/12/19 03:56:51;;;;;;;10.55;6.47;;;9.60;90.10;;;9.37;77.42;100420.44;4975200;28;20129;-78
2020/12/19 03:59:20;;;;;;;13.07;6.95;;;9.60;90.20;;;9.37;77.71;100424.00;4975614;28;20504;-78
2020/12/19 04:01:46;;;;;;;12.63;7.07;;;9.60;90.10;;;9.38;77.86;100419.41;4975415;28;20101;-78
2020/12/19 04:04:13;;;;;;;12.98;7.05;;;9.60;90.20;;;9.38;77.46;100425.69;4975810;28;20122;-78
2020/12/19 04:06:41;;;;;;;13.68;7.72;;;9.60;90.20;;;9.39;77.79;100431.97;4974787;28;20125;-78
2020/12/19 04:09:07;;;;;;;13.30;7.30;;;9.60;90.30;;;9.39;77.82;100431.97;4975063;28;20130;-78
2020/12/19 04:11:34;;;;;;;12.68;7.00;;;9.60;90.30;;;9.40;77.41;100425.50;4975516;28;20142;-78
2020/12/19 04:14:01;;;;;;;12.30;7.20;;;9.60;90.20;;;9.42;77.42;100422.63;4973861;28;20149;-78
2020/12/19 04:16:28;;;;;;;12.63;7.38;;;9.60;90.30;;;9.39;77.64;100419.22;4973665;28;20046;-78
2020/12/19 04:18:54;;;;;;;12.43;7.47;;;9.60;90.10;;;9.38;77.47;100420.25;4975757;28;20126;-78
2020/12/19 04:21:21;;;;;;;12.38;7.50;;;9.60;90.10;;;9.39;77.42;100411.09;4975284;28;20141;-78
2020/12/19 04:23:49;;;;;;;12.38;7.35;;;9.60;90.10;;;9.33;77.55;100400.94;4990046;28;20078;-78
2020/12/19 04:26:15;;;;;;;13.82;7.22;;;9.60;90.20;;;9.35;77.66;100407.03;4974882;28;20133;-78
2020/12/19 04:28:42;;;;;;;12.20;7.30;;;9.60;90.40;;;9.37;77.35;100410.41;4975150;28;20150;-78
2020/12/19 04:31:09;;;;;;;12.35;6.93;;;9.60;90.30;;;9.31;77.27;100413.88;4975567;28;20433;-78
2020/12/19 04:33:35;;;;;;;12.98;7.60;;;9.60;90.10;;;9.37;77.42;100409.59;4975068;28;20045;-78
2020/12/19 04:36:02;;;;;;;10.73;7.10;;;9.60;90.20;;;9.36;77.40;100406.00;4973413;28;20051;-78
2020/12/19 04:38:29;;;;;;;12.23;6.90;;;9.60;90.20;;;9.36;77.12;100406.00;4974998;28;20133;-78
2020/12/19 04:40:58;;;;;;;14.70;7.93;;;9.50;90.20;;;9.37;77.59;100407.72;4974587;28;20577;-78
2020/12/19 04:43:27;;;;;;;15.48;7.70;;;9.60;90.30;;;9.32;77.62;100410.09;4974339;28;20055;-78
2020/12/19 04:45:56;;;;;;;11.93;7.50;;;9.50;90.40;;;9.32;77.58;100404.66;4974166;28;20098;-78
2020/12/19 04:48:24;;;;;;;12.02;7.63;;;9.50;90.50;;;9.31;77.41;100403.00;4974625;28;20108;-78
2020/12/19 04:50:51;;;;;;;12.35;7.40;;;9.50;90.40;;;9.32;77.30;100406.56;4974982;28;20051;-78
2020/12/19 04:53:21;;;;;;;13.57;7.53;;;9.50;90.40;;;9.30;77.30;100406.72;4974416;28;20098;-78
2020/12/19 04:55:48;;;;;;;11.88;7.53;;;9.50;90.50;;;9.30;77.48;100395.84;4974036;28;20109;-78
2020/12/19 04:58:18;;;;;;;14.63;8.18;;;9.50;90.20;;;9.30;77.50;100395.03;4974554;28;20129;-78
2020/12/19 05:00:46;;;;;;;12.25;7.38;;;9.50;90.30;;;9.26;77.21;100389.09;4973670;28;20571;-78
2020/12/19 05:03:14;;;;;;;12.88;8.35;;;9.50;90.30;;;9.28;77.41;100397.91;4974004;28;20042;-78
2020/12/19 05:05:46;;;;;;;16.75;8.40;;;9.40;90.30;;;9.26;77.44;100389.09;4974269;28;20137;-78
2020/12/19 05:08:13;;;;;;;13.25;7.90;;;9.40;90.30;;;9.27;77.51;100384.50;4974547;28;20047;-78
2020/12/19 05:10:40;;;;;;;14.52;8.10;;;9.50;90.40;;;9.26;77.31;100389.09;4974322;28;20048;-78
2020/12/19 05:13:07;;;;;;;13.75;8.05;;;9.50;90.40;;;9.24;77.78;100379.47;4974422;28;20082;-78
2020/12/19 05:15:35;;;;;;;13.85;8.05;;;9.40;90.40;;;9.27;77.20;100385.38;4973569;28;20436;-78
2020/12/19 05:18:02;;;;;;;13.88;7.90;;;9.40;90.40;;;9.24;77.28;100380.28;4973820;28;20499;-79
2020/12/19 05:20:31;;;;;;;14.48;8.43;;;9.50;90.50;;;9.25;77.76;100387.41;4956347;28;20138;-78
2020/12/19 05:22:58;;;;;;;11.35;7.70;;;9.50;90.60;;;9.25;77.53;100386.56;4974293;28;20054;-78
2020/12/19 05:25:27;;;;;;;12.73;8.30;;;9.40;90.50;;;9.26;77.29;100371.97;4973851;28;20073;-78
2020/12/19 05:27:55;;;;;;;16.48;7.53;;;9.50;90.60;;;9.26;77.45;100378.25;4974120;28;20097;-78
2020/12/19 05:30:22;;;;;;;13.40;7.63;;;9.40;90.40;;;9.27;77.84;100373.66;4973783;28;20058;-78
2020/12/19 05:32:51;;;;;;;16.40;8.40;;;9.50;90.50;;;9.29;77.54;100369.75;4973968;28;20038;-78
2020/12/19 05:35:21;;;;;;;13.63;8.10;;;9.50;90.60;;;9.30;77.77;100371.41;4982442;28;20084;-78
2020/12/19 05:38:01;;;;;;;12.60;8.05;;;9.50;90.60;;;9.28;77.72;100372.63;4992588;28;20125;-78
2020/12/19 05:40:30;;;;;;;14.07;7.80;;;9.50;90.60;;;9.27;77.38;100363.66;4993315;28;20131;-78
2020/12/19 05:42:57;;;;;;;15.35;8.23;;;9.50;90.60;;;9.29;77.58;100366.16;4993127;28;20148;-78
2020/12/19 05:45:26;;;;;;;15.38;8.50;;;9.40;90.50;;;9.25;77.55;100360.25;4993098;28;20051;-78
2020/12/19 05:47:54;;;;;;;14.35;8.70;;;9.50;90.80;;;9.29;77.83;100358.88;4992984;28;20077;-78
2020/12/19 05:50:22;;;;;;;13.95;8.32;;;9.40;90.70;;;9.26;77.72;100361.94;4993381;28;20141;-78
2020/12/19 05:52:50;;;;;;;14.10;8.15;;;9.40;90.70;;;9.25;77.44;100360.25;4992819;28;20077;-78
2020/12/19 05:55:18;;;;;;;13.45;8.00;;;9.40;90.80;;;9.24;77.60;100364.00;4992533;28;20100;-78
2020/12/19 05:57:47;;;;;;;13.50;8.23;;;9.40;90.90;;;9.24;78.07;100355.00;4992759;28;20073;-78
2020/12/19 06:00:17;;;;;;;13.60;8.32;;;9.40;90.90;;;9.23;77.83;100356.88;4992720;28;20658;-78
2020/12/19 06:02:45;;;;;;;15.87;8.90;;;9.40;90.90;;;9.24;77.92;100355.84;4992727;28;20077;-78
2020/12/19 06:05:15;;;;;;;11.80;7.82;;;9.40;90.90;;;9.24;77.80;100355.00;4975147;28;20373;-78
2020/12/19 06:07:44;;;;;;;12.68;7.40;;;9.40;91.00;;;9.23;77.97;100351.44;4993077;28;20125;-78
2020/12/19 06:10:13;;;;;;;12.70;8.13;;;9.40;91.00;;;9.25;78.05;100354.81;4992287;28;20054;-78
2020/12/19 06:13:00;;;;;;;12.90;8.73;;;9.40;90.80;;;9.23;78.05;100356.03;4992761;28;20554;-78
2020/12/19 06:15:52;;;;;;;14.73;8.45;;;9.50;90.90;;;9.23;77.81;100362.28;4992351;28;20058;-78
2020/12/19 06:18:38;;;;;;;14.55;8.70;;;9.40;90.80;;;9.26;78.13;100352.97;4991009;28;20133;-78
2020/12/19 06:21:08;;;;;;;12.38;7.72;;;9.50;90.90;;;9.28;78.41;100359.91;4992916;28;20459;-78
2020/12/19 06:23:36;;;;;;;13.85;8.27;;;9.50;91.00;;;9.26;78.19;100361.94;4992472;28;20065;-78
2020/12/19 06:26:03;;;;;;;11.85;7.97;;;9.50;91.00;;;9.28;77.91;100359.06;4992317;28;20077;-78
2020/12/19 06:28:50;;;;;;;13.75;8.55;;;9.50;91.00;;;9.31;78.34;100358.69;4992169;28;20129;-78
2020/12/19 06:31:19;;;;;;;13.00;8.45;;;9.50;91.00;;;9.30;78.31;100357.00;4993199;28;20046;-80
2020/12/19 06:33:48;;;;;;;14.82;8.10;;;9.50;91.10;;;9.30;78.60;100355.13;4995358;28;20074;-80
2020/12/19 06:36:23;;;;;;;14.70;8.68;;;9.60;91.10;;;9.31;78.28;100354.13;4993688;28;20060;-82
2020/12/19 06:38:53;;;;;;;16.13;9.25;;;9.60;91.10;;;9.32;78.56;100355.78;4993352;28;20561;-83
2020/12/19 06:41:43;;;;;;;16.42;8.85;;;9.60;91.30;;;9.33;78.59;100346.63;4993361;28;20129;-82
2020/12/19 06:44:12;;;;;;;15.07;8.88;;;9.50;91.40;;;9.30;78.67;100346.97;4993455;28;20550;-82
2020/12/19 06:46:39;;;;;;;15.40;8.90;;;9.60;91.30;;;9.33;78.49;100346.63;4988299;28;20081;-83
2020/12/19 06:49:37;;;;;;;16.05;9.75;;;9.60;91.30;;;9.35;78.47;100344.56;4974054;28;20043;-83
2020/12/19 06:52:11;;;;;;;17.55;9.20;;;9.60;91.40;;;9.38;78.19;100336.03;4930478;28;20089;-83
2020/12/19 06:54:40;;;;;;;15.32;8.95;;;9.60;91.40;;;9.35;78.67;100341.84;4973864;28;20054;-83
2020/12/19 06:57:22;;;;;;;14.70;9.45;;;9.60;91.40;;;9.36;78.58;100351.69;4973668;28;20118;-82
2020/12/19 06:59:49;;;;;;;14.45;8.95;;;9.60;91.50;;;9.32;78.59;100344.09;4973425;28;20051;-79
2020/12/19 07:02:18;;;;;;;13.70;9.25;;;9.60;91.50;;;9.35;78.96;100354.59;4973602;28;20046;-77
2020/12/19 07:04:46;;;;;;;16.08;9.48;;;9.60;91.60;;;9.38;78.75;100343.34;4975585;28;20125;-80
2020/12/19 07:07:15;;;;;;;15.10;10.02;;;9.60;91.70;;;9.38;78.56;100344.19;4978265;28;20142;-79
2020/12/19 07:09:54;;;;;;;16.27;9.52;;;9.60;91.70;;;9.40;78.77;100338.59;4972902;28;20058;-80
2020/12/19 07:12:33;;;;;;;15.98;9.88;;;9.60;91.80;;;9.36;78.76;100335.38;4973107;28;20081;-80
2020/12/19 07:15:01;;;;;;;17.58;9.73;;;9.60;91.80;;;9.38;78.77;100338.75;4971180;28;20380;-80
2020/12/19 07:17:28;;;;;;;20.67;10.35;;;9.60;91.70;;;9.42;79.00;100339.25;4974333;28;20138;-83
2020/12/19 07:20:01;;;;;;;15.85;9.48;;;9.60;91.80;;;9.39;79.37;100335.03;4974970;28;20078;-82
2020/12/19 07:22:29;;;;;;;15.95;9.27;;;9.60;91.90;;;9.42;79.65;100335.69;4974644;28;20046;-82
2020/12/19 07:24:56;;;;;;;18.75;10.50;;;9.70;91.90;;;9.44;79.25;100336.34;4983399;28;20042;-82
2020/12/19 07:27:23;;;;;;;15.57;9.82;;;9.70;91.80;;;9.46;78.94;100339.72;4993270;28;20101;-82
2020/12/19 07:29:57;;;;;;;15.77;9.55;;;9.80;91.80;;;9.48;79.01;100337.69;4977597;28;20043;-82
2020/12/19 07:32:24;;;;;;;16.48;10.65;;;9.80;91.60;;;9.49;78.98;100342.94;4978914;28;20094;-81
2020/12/19 07:34:54;;;;;;;19.63;10.27;;;9.80;91.70;;;9.51;78.97;100342.75;4978700;28;20111;-81
2020/12/19 07:37:21;;;;;;;18.88;10.27;;;9.80;91.80;;;9.45;79.46;100346.22;4978110;28;20042;-81
2020/12/19 07:39:49;;;;;;;15.45;9.95;;;9.80;91.90;;;9.47;79.57;100341.44;4978374;28;20151;-82
2020/12/19 07:42:16;;;;;;;16.15;10.60;;;9.80;91.80;;;9.49;79.44;100342.09;4978748;28;20507;-81
2020/12/19 07:44:46;;;;;;;19.23;11.35;;;9.80;91.80;;;9.52;79.46;100349.88;4976996;28;20054;-82
2020/12/19 07:47:14;;;;;;;19.65;12.00;;;9.80;92.00;;;9.54;79.11;100353.28;4960835;28;20138;-81
2020/12/19 07:49:46;;;;;;;17.52;11.73;;;9.80;91.80;;;9.55;79.22;100352.22;4978793;28;20118;-81
2020/12/19 07:52:23;;;;;;;17.30;11.32;;;9.80;91.70;;;9.54;79.35;100380.44;4979451;28;20142;-81
2020/12/19 07:55:00;;;;;;;17.75;10.70;;;9.80;91.90;;;9.54;79.02;100370.41;4977985;28;20197;-81
2020/12/19 07:57:28;;;;;;;17.67;11.02;;;9.80;91.90;;;9.55;79.49;100368.53;4978176;28;20046;-81
2020/12/19 07:59:55;;;;;;;20.98;11.80;;;9.90;92.00;;;9.55;79.29;100374.81;4979164;28;20047;-81
2020/12/19 08:02:23;;;;;;;16.17;10.30;;;9.80;91.90;;;9.54;79.63;100375.00;4979186;28;20749;-81
2020/12/19 08:04:53;;;;;;;15.73;10.15;;;9.90;91.90;;;9.55;79.73;100388.38;4964701;28;20078;-81
2020/12/19 08:07:22;;;;;;;17.45;9.75;;;9.90;92.00;;;9.56;79.80;100378.38;4963949;28;20038;-81
2020/12/19 08:09:49;;;;;;;17.45;10.85;;;9.90;92.00;;;9.53;79.90;100379.56;4978916;28;20066;-82
2020/12/19 08:12:17;;;;;;;19.38;10.55;;;10.00;91.90;;;9.58;79.80;100381.75;4978661;28;20138;-82
2020/12/19 08:14:45;;;;;;;15.77;9.57;;;10.00;91.80;;;9.59;80.08;100378.88;4980671;28;20664;-83
2020/12/19 08:17:15;;;;;;;16.00;10.00;;;10.00;92.00;;;9.61;80.01;100367.78;4980945;28;20093;-82
2020/12/19 08:19:47;;;;;;;15.52;9.65;;;10.00;91.70;;;9.60;80.29;100368.84;4979963;28;20051;-82
2020/12/19 08:22:15;;;;;;;15.98;9.90;;;10.00;91.70;;;9.62;80.24;100369.50;4978088;28;20113;-82
2020/12/19 08:24:47;;;;;;;14.13;9.60;;;10.10;91.70;;;9.64;80.15;100361.16;4976637;28;20145;-80
2020/12/19 08:27:46;;;;;;;13.93;9.13;;;10.10;91.60;;;9.63;80.41;100357.59;4976257;28;20134;-80
2020/12/19 08:30:21;;;;;;;18.33;10.68;;;10.10;91.70;;;9.65;79.90;100347.38;4933395;28;20101;-81
2020/12/19 08:32:51;;;;;;;15.52;9.70;;;10.20;91.40;;;9.69;80.28;100343.28;4958821;28;20078;-80
2020/12/19 08:35:24;;;;;;;18.92;9.27;;;10.20;91.30;;;9.71;80.35;100343.09;4972742;28;20114;-80
2020/12/19 08:37:52;;;;;;;17.67;10.50;;;10.10;91.40;;;9.73;80.07;100341.06;4974741;28;20471;-80
2020/12/19 08:40:20;;;;;;;16.70;9.73;;;10.20;91.20;;;9.74;80.05;100338.13;4974033;28;20082;-80
2020/12/19 08:42:53;;;;;;;14.70;9.85;;;10.20;91.30;;;9.75;80.13;100337.13;4975396;28;20046;-81
2020/12/19 08:45:30;;;;;;;17.10;9.85;;;10.30;91.50;;;9.77;79.81;100332.34;4958835;28;20093;-80
2020/12/19 08:48:00;;;;;;;18.75;10.05;;;10.30;91.10;;;9.80;79.71;100333.84;4975926;28;20106;-80
2020/12/19 08:50:37;;;;;;;15.07;9.60;;;10.30;91.00;;;9.82;80.04;100339.09;4976476;28;20437;-78
2020/12/19 08:53:16;;;;;;;14.95;10.23;;;10.30;91.10;;;9.81;79.84;100337.44;4976007;28;20070;-79
2020/12/19 08:55:44;;;;;;;15.77;9.23;;;10.40;91.10;;;9.85;79.57;100336.03;4975087;28;20053;-78
2020/12/19 08:58:23;;;;;;;13.98;9.20;;;10.40;91.00;;;9.85;79.52;100339.56;4976484;28;20082;-83
2020/12/19 09:00:51;;;;;;;20.98;9.02;;;10.40;91.00;;;9.87;79.97;100352.97;4977185;28;20043;-82
2020/12/19 09:03:27;;;;;;;15.23;9.20;;;10.50;91.30;;;9.85;80.07;100360.47;4992413;28;20124;-82
2020/12/19 09:06:03;;;;;;;16.08;9.15;;;10.50;90.90;;;9.88;79.96;100360.09;4976098;28;20102;-79
2020/12/19 09:08:36;;;;;;;13.13;8.95;;;10.50;90.60;;;9.89;80.09;100364.53;4974934;28;20066;-81
2020/12/19 09:11:05;;;;;;;15.18;10.18;;;10.50;90.70;;;9.91;79.86;100365.19;4957893;28;20820;-80
2020/12/19 09:13:33;;;;;;;18.40;9.13;;;10.50;90.60;;;9.90;79.78;100368.91;4956605;28;20638;-81
2020/12/19 09:16:08;;;;;;;16.33;8.80;;;10.50;90.80;;;9.87;80.11;100363.84;4980491;28;20073;-84
2020/12/19 09:18:37;;;;;;;15.63;8.90;;;10.50;91.00;;;9.89;80.32;100368.06;4972653;28;20043;-82
2020/12/19 09:21:07;;;;;;;15.68;8.93;;;10.60;90.70;;;9.91;80.23;100365.19;4956475;28;20126;-82
2020/12/19 09:23:34;;;;;;;15.75;9.70;;;10.60;90.40;;;9.94;80.02;100370.25;4967827;28;20070;-82
2020/12/19 09:26:03;;;;;;;24.52;9.63;;;10.70;90.40;;;9.97;80.05;100370.69;4975502;28;20070;-83
2020/12/19 09:28:32;;;;;;;13.52;8.98;;;10.70;90.20;;;9.99;79.68;100365.09;4975434;28;20189;-81
2020/12/19 09:30:59;;;;;;;14.20;8.65;;;10.70;90.30;;;10.01;79.57;100365.75;4975347;28;20050;-80
2020/12/19 09:33:26;;;;;;;13.55;8.57;;;10.70;90.10;;;10.01;79.70;100360.31;4958349;28;20130;-80
2020/12/19 09:35:54;;;;;;;14.40;9.23;;;10.70;90.10;;;10.03;79.94;100365.56;4957609;28;20542;-81
2020/12/19 09:38:21;;;;;;;15.98;9.25;;;10.70;90.10;;;10.02;80.15;100362.00;4974506;28;20026;-81
2020/12/19 09:40:48;;;;;;;13.95;8.25;;;10.70;90.20;;;10.02;80.01;100369.34;4974293;28;20130;-80
2020/12/19 09:43:15;;;;;;;14.52;8.85;;;10.80;90.10;;;10.07;79.77;100365.03;4975078;28;20078;-81
2020/12/19 09:45:43;;;;;;;15.50;8.50;;;10.80;90.00;;;10.10;80.12;100369.25;4974433;28;20074;-81
2020/12/19 09:48:09;;;;;;;15.45;8.30;;;10.90;90.10;;;10.11;79.89;100360.91;4974472;28;20078;-81
2020/12/19 09:50:36;;;;;;;14.10;7.82;;;10.80;90.20;;;10.12;80.25;100357.13;4975330;28;20078;-81
2020/12/19 09:53:03;;;;;;;12.88;8.13;;;10.90;90.30;;;10.12;80.25;100359.84;4975434;28;20070;-81
2020/12/19 09:55:32;;;;;;;13.25;7.90;;;10.90;90.20;;;10.13;80.65;100364.28;4975149;28;20085;-81
2020/12/19 09:57:59;;;;;;;13.88;8.10;;;11.00;90.00;;;10.18;80.22;100364.59;4979038;28;20702;-80
2020/12/19 10:00:26;;;;;;;10.93;6.85;;;11.00;89.70;;;10.21;80.05;100354.34;4970025;28;20059;-81
2020/12/19 10:02:54;;;;;;;15.23;7.88;;;11.10;89.60;;;10.21;80.32;100354.34;4975214;28;20043;-81
2020/12/19 10:05:22;;;;;;;12.52;6.97;;;11.10;89.50;;;10.20;80.36;100358.09;4974542;28;20059;-81
2020/12/19 10:07:49;;;;;;;10.65;6.78;;;11.20;89.20;;;10.22;80.26;100356.88;4975586;28;20039;-81
2020/12/19 10:10:15;;;;;;;12.90;7.72;;;11.20;89.00;;;10.27;80.03;100350.88;4975791;28;20074;-80
2020/12/19 10:12:42;;;;;;;13.40;7.20;;;11.20;88.80;;;10.29;80.03;100341.50;4975016;28;20052;-80
2020/12/19 10:15:11;;;;;;;12.25;7.13;;;11.30;88.90;;;10.32;79.81;100345.78;4974685;28;20050;-81
2020/12/19 10:17:38;;;;;;;14.30;7.03;;;11.30;88.70;;;10.33;79.85;100351.00;4987012;28;20039;-81
2020/12/19 10:20:08;;;;;;;12.65;7.35;;;11.30;88.60;;;10.36;79.62;100347.91;4975807;28;20113;-80
2020/12/19 10:22:34;;;;;;;13.25;6.80;;;11.30;88.40;;;10.38;79.79;100350.44;4975320;28;20061;-81
2020/12/19 10:25:01;;;;;;;11.30;6.75;;;11.30;88.60;;;10.39;79.70;100343.97;4974209;28;20071;-80